Qing Ping Shan — VROK6 — position and weather

sailwx.info

Track history (hours):
 
Tides and Currents Weather Stations Pressure Air Temp Water Temp Dewpoint Dewpoint Depression Visibility Wind Speed Wind Dir Waves Ship Positions

Qing Ping Shan

Last reported at 2017-Oct-14 19:55 UTC. Time now 2017-Oct-17 18:54 UTC.
Position N 39°15' W 009°51'.

Length 199 m; draft 11.5 m.

Type: Cargo ship. MMSI: 477078500.

Date/timePositionNaut miles runAvg speedWind from/ knotsBaromVisibWave heightAir tempDewpointWater temp
2017-Oct-14 19:55N 39°15' W 009°51'512.6
2017-Oct-14 19:30N 39°10' W 009°51'612.4
2017-Oct-14 19:00N 39°04' W 009°51'612.9
2017-Oct-14 18:30N 38°57' W 009°52'612.8
2017-Oct-14 18:00N 38°51' W 009°52'612.7
2017-Oct-14 17:30N 38°45' W 009°52'612.5
2017-Oct-14 17:00N 38°39' W 009°50'612.6
2017-Oct-14 16:30N 38°32' W 009°48'612.7
2017-Oct-14 16:00N 38°26' W 009°47'612.7
2017-Oct-14 15:30N 38°20' W 009°45'612.9
2017-Oct-14 15:00N 38°14' W 009°43'612.7
2017-Oct-14 14:30N 38°08' W 009°41'612.7
2017-Oct-14 14:00N 38°01' W 009°39'612.8
2017-Oct-14 13:30N 37°55' W 009°37'612.6
2017-Oct-14 13:00N 37°49' W 009°35'612.8
2017-Oct-14 12:30N 37°43' W 009°33'612.6
2017-Oct-14 12:00N 37°37' W 009°32'612.5
2017-Oct-14 11:30N 37°31' W 009°30'612.5
2017-Oct-14 11:00N 37°24' W 009°28'612.6
2017-Oct-14 10:30N 37°18' W 009°27'612.6
2017-Oct-14 10:00N 37°12' W 009°25'612.4
2017-Oct-14 09:30N 37°06' W 009°23'612.3
2017-Oct-14 09:00N 37°00' W 009°22'612.0
2017-Oct-14 08:30N 36°54' W 009°20'612.1
2017-Oct-14 08:00N 36°50' W 009°16'612.8
2017-Oct-14 07:30N 36°45' W 009°10'612.4
2017-Oct-14 07:00N 36°43' W 009°03'612.3
2017-Oct-14 06:30N 36°41' W 008°55'612.6
2017-Oct-14 06:00N 36°39' W 008°48'712.8
2017-Oct-14 05:28N 36°37' W 008°40'613.0
2017-Oct-14 04:58N 36°35' W 008°32'612.8
2017-Oct-14 04:30N 36°33' W 008°25'812.6
2017-Oct-14 03:51N 36°30' W 008°15'412.7
2017-Oct-14 03:30N 36°29' W 008°10'612.8
2017-Oct-14 03:00N 36°27' W 008°03'612.7
2017-Oct-14 02:30N 36°25' W 007°55'612.6
2017-Oct-14 02:00N 36°23' W 007°48'612.3
2017-Oct-14 01:30N 36°21' W 007°40'613.0
2017-Oct-14 01:00N 36°19' W 007°33'612.8
2017-Oct-14 00:30N 36°17' W 007°25'1212.8
2017-Oct-13 23:33N 36°13' W 007°11'113.0
2017-Oct-13 23:27N 36°12' W 007°10'612.6
2017-Oct-13 23:00N 36°11' W 007°03'612.2
2017-Oct-13 22:30N 36°09' W 006°56'6012.5
2017-Oct-13 17:42N 35°57' W 005°43'513.2
2017-Oct-13 17:18N 35°57' W 005°36'311.9
2017-Oct-13 17:00N 35°58' W 005°32'510.1
2017-Oct-13 16:30N 35°60' W 005°26'5 9.4
2017-Oct-13 16:00N 36°01' W 005°20'5 9.9
2017-Oct-13 15:30N 36°03' W 005°15'20212.0
2017-Oct-12 22:41N 36°37' W 001°07'212.7
2017-Oct-12 22:29N 36°37' W 001°04'1212.7
2017-Oct-12 21:32N 36°39' W 000°50'013.0
2017-Oct-12 21:30N 36°40' W 000°49'713.0
2017-Oct-12 20:59N 36°41' W 000°41'712.9
2017-Oct-12 20:26N 36°42' W 000°32'712.7
2017-Oct-12 19:53N 36°44' W 000°24'1112.7
2017-Oct-12 19:03N 36°46' W 000°11'112.8
2017-Oct-12 18:59N 36°46' W 000°10'612.8
2017-Oct-12 18:30N 36°47' W 000°02'612.8
2017-Oct-12 18:00N 36°48' E 000°06'612.7
2017-Oct-12 17:30N 36°50' E 000°13'612.7
2017-Oct-12 17:00N 36°51' E 000°21'612.8
2017-Oct-12 16:30N 36°52' E 000°29'612.6
2017-Oct-12 16:00N 36°53' E 000°37'713.1
2017-Oct-12 15:30N 36°55' E 000°45'613.1
2017-Oct-12 15:00N 36°56' E 000°53'613.0
2017-Oct-12 14:30N 36°58' E 001°01'612.8
2017-Oct-12 14:00N 36°59' E 001°09'612.5
2017-Oct-12 13:30N 36°60' E 001°16'612.6
2017-Oct-12 13:00N 37°01' E 001°24'612.6
2017-Oct-12 12:30N 37°02' E 001°32'912.8
2017-Oct-12 11:50N 37°04' E 001°42'612.7
2017-Oct-12 11:24N 37°05' E 001°49'612.3
2017-Oct-12 10:56N 37°07' E 001°56'612.5
2017-Oct-12 10:27N 37°08' E 002°03'612.4
2017-Oct-12 10:00N 37°09' E 002°10'612.5
2017-Oct-12 09:30N 37°10' E 002°18'812.5
2017-Oct-12 08:51N 37°12' E 002°28'55411.9
2017-Oct-10 10:19N 36°37' E 013°59'311.3
2017-Oct-10 10:00N 36°36' E 014°04'611.1
2017-Oct-10 09:30N 36°35' E 014°10'611.2
2017-Oct-10 09:00N 36°32' E 014°17'611.8
2017-Oct-10 08:30N 36°31' E 014°24'611.4
2017-Oct-10 07:59N 36°29' E 014°31'611.7
2017-Oct-10 07:30N 36°28' E 014°37'46811.3
2017-Oct-08 13:59N 37°45' E 024°16'712.4
2017-Oct-08 13:25N 37°49' E 024°23'26711.4
2017-Oct-07 14:02N 40°52' E 028°35'012.1
2017-Oct-07 14:00N 40°52' E 028°35'812.0
2017-Oct-07 13:22N 40°54' E 028°45'512.0
2017-Oct-07 13:00N 40°55' E 028°51'4 9.1
2017-Oct-07 12:30N 40°57' E 028°56'1 0.1
2017-Oct-07 05:31N 40°58' E 028°56'0 1.4
2017-Oct-07 05:30N 40°58' E 028°56'1 2.8
2017-Oct-07 05:00N 40°59' E 028°58'  
Track history (hours):
 
Tides and Currents Weather Stations Pressure Air Temp Water Temp Dewpoint Dewpoint Depression Visibility Wind Speed Wind Dir Waves Ship Positions

Qing Ping Shan

Last reported at 2017-Oct-14 19:55 UTC. Time now 2017-Oct-17 18:54 UTC.
Position N 39°15' W 009°51'.

Length 199 m; draft 11.5 m.

Type: Cargo ship. MMSI: 477078500.

Date/timePositionNaut miles runAvg speedWind from/ knotsBaromVisibWave heightAir tempDewpointWater temp
2017-Oct-14 19:55N 39°15' W 009°51'512.6
2017-Oct-14 19:30N 39°10' W 009°51'612.4
2017-Oct-14 19:00N 39°04' W 009°51'612.9
2017-Oct-14 18:30N 38°57' W 009°52'612.8
2017-Oct-14 18:00N 38°51' W 009°52'612.7
2017-Oct-14 17:30N 38°45' W 009°52'612.5
2017-Oct-14 17:00N 38°39' W 009°50'612.6
2017-Oct-14 16:30N 38°32' W 009°48'612.7
2017-Oct-14 16:00N 38°26' W 009°47'612.7
2017-Oct-14 15:30N 38°20' W 009°45'612.9
2017-Oct-14 15:00N 38°14' W 009°43'612.7
2017-Oct-14 14:30N 38°08' W 009°41'612.7
2017-Oct-14 14:00N 38°01' W 009°39'612.8
2017-Oct-14 13:30N 37°55' W 009°37'612.6
2017-Oct-14 13:00N 37°49' W 009°35'612.8
2017-Oct-14 12:30N 37°43' W 009°33'612.6
2017-Oct-14 12:00N 37°37' W 009°32'612.5
2017-Oct-14 11:30N 37°31' W 009°30'612.5
2017-Oct-14 11:00N 37°24' W 009°28'612.6
2017-Oct-14 10:30N 37°18' W 009°27'612.6
2017-Oct-14 10:00N 37°12' W 009°25'612.4
2017-Oct-14 09:30N 37°06' W 009°23'612.3
2017-Oct-14 09:00N 37°00' W 009°22'612.0
2017-Oct-14 08:30N 36°54' W 009°20'612.1
2017-Oct-14 08:00N 36°50' W 009°16'612.8
2017-Oct-14 07:30N 36°45' W 009°10'612.4
2017-Oct-14 07:00N 36°43' W 009°03'612.3
2017-Oct-14 06:30N 36°41' W 008°55'612.6
2017-Oct-14 06:00N 36°39' W 008°48'712.8
2017-Oct-14 05:28N 36°37' W 008°40'613.0
2017-Oct-14 04:58N 36°35' W 008°32'612.8
2017-Oct-14 04:30N 36°33' W 008°25'812.6
2017-Oct-14 03:51N 36°30' W 008°15'412.7
2017-Oct-14 03:30N 36°29' W 008°10'612.8
2017-Oct-14 03:00N 36°27' W 008°03'612.7
2017-Oct-14 02:30N 36°25' W 007°55'612.6
2017-Oct-14 02:00N 36°23' W 007°48'612.3
2017-Oct-14 01:30N 36°21' W 007°40'613.0
2017-Oct-14 01:00N 36°19' W 007°33'612.8
2017-Oct-14 00:30N 36°17' W 007°25'1212.8
2017-Oct-13 23:33N 36°13' W 007°11'113.0
2017-Oct-13 23:27N 36°12' W 007°10'612.6
2017-Oct-13 23:00N 36°11' W 007°03'612.2
2017-Oct-13 22:30N 36°09' W 006°56'6012.5
2017-Oct-13 17:42N 35°57' W 005°43'513.2
2017-Oct-13 17:18N 35°57' W 005°36'311.9
2017-Oct-13 17:00N 35°58' W 005°32'510.1
2017-Oct-13 16:30N 35°60' W 005°26'5 9.4
2017-Oct-13 16:00N 36°01' W 005°20'5 9.9
2017-Oct-13 15:30N 36°03' W 005°15'20212.0
2017-Oct-12 22:41N 36°37' W 001°07'212.7
2017-Oct-12 22:29N 36°37' W 001°04'1212.7
2017-Oct-12 21:32N 36°39' W 000°50'013.0
2017-Oct-12 21:30N 36°40' W 000°49'713.0
2017-Oct-12 20:59N 36°41' W 000°41'712.9
2017-Oct-12 20:26N 36°42' W 000°32'712.7
2017-Oct-12 19:53N 36°44' W 000°24'1112.7
2017-Oct-12 19:03N 36°46' W 000°11'112.8
2017-Oct-12 18:59N 36°46' W 000°10'612.8
2017-Oct-12 18:30N 36°47' W 000°02'612.8
2017-Oct-12 18:00N 36°48' E 000°06'612.7
2017-Oct-12 17:30N 36°50' E 000°13'612.7
2017-Oct-12 17:00N 36°51' E 000°21'612.8
2017-Oct-12 16:30N 36°52' E 000°29'612.6
2017-Oct-12 16:00N 36°53' E 000°37'713.1
2017-Oct-12 15:30N 36°55' E 000°45'613.1
2017-Oct-12 15:00N 36°56' E 000°53'613.0
2017-Oct-12 14:30N 36°58' E 001°01'612.8
2017-Oct-12 14:00N 36°59' E 001°09'612.5
2017-Oct-12 13:30N 36°60' E 001°16'612.6
2017-Oct-12 13:00N 37°01' E 001°24'612.6
2017-Oct-12 12:30N 37°02' E 001°32'912.8
2017-Oct-12 11:50N 37°04' E 001°42'612.7
2017-Oct-12 11:24N 37°05' E 001°49'612.3
2017-Oct-12 10:56N 37°07' E 001°56'612.5
2017-Oct-12 10:27N 37°08' E 002°03'612.4
2017-Oct-12 10:00N 37°09' E 002°10'612.5
2017-Oct-12 09:30N 37°10' E 002°18'812.5
2017-Oct-12 08:51N 37°12' E 002°28'55411.9
2017-Oct-10 10:19N 36°37' E 013°59'311.3
2017-Oct-10 10:00N 36°36' E 014°04'611.1
2017-Oct-10 09:30N 36°35' E 014°10'611.2
2017-Oct-10 09:00N 36°32' E 014°17'611.8
2017-Oct-10 08:30N 36°31' E 014°24'611.4
2017-Oct-10 07:59N 36°29' E 014°31'611.7
2017-Oct-10 07:30N 36°28' E 014°37'46811.3
2017-Oct-08 13:59N 37°45' E 024°16'712.4
2017-Oct-08 13:25N 37°49' E 024°23'26711.4
2017-Oct-07 14:02N 40°52' E 028°35'012.1
2017-Oct-07 14:00N 40°52' E 028°35'812.0
2017-Oct-07 13:22N 40°54' E 028°45'512.0
2017-Oct-07 13:00N 40°55' E 028°51'4 9.1
2017-Oct-07 12:30N 40°57' E 028°56'1 0.1
2017-Oct-07 05:31N 40°58' E 028°56'0 1.4
2017-Oct-07 05:30N 40°58' E 028°56'1 2.8
2017-Oct-07 05:00N 40°59' E 028°58'  

Dump ship's entire track history